createdAt,value
2019-03-04T00:02:15.096Z,34.60
2019-03-04T00:04:44.807Z,31.07
2019-03-04T00:07:14.394Z,29.67
2019-03-04T00:09:43.826Z,28.87
2019-03-04T00:12:13.409Z,31.33
2019-03-04T00:14:42.733Z,31.40
2019-03-04T00:17:13.419Z,26.83
2019-03-04T00:19:42.638Z,30.73
2019-03-04T00:22:12.349Z,28.93
2019-03-04T00:24:42.017Z,29.40
2019-03-04T00:27:11.351Z,29.53
2019-03-04T00:29:42.094Z,29.53
2019-03-04T00:32:11.360Z,23.33
2019-03-04T00:34:40.718Z,28.90
2019-03-04T00:37:09.855Z,28.67
2019-03-04T00:39:39.819Z,26.13
2019-03-04T00:42:09.140Z,33.07
2019-03-04T00:44:38.783Z,26.17
2019-03-04T00:47:08.000Z,21.90
2019-03-04T00:49:37.563Z,18.80
2019-03-04T00:52:07.087Z,25.03
2019-03-04T00:54:36.379Z,24.70
2019-03-04T00:57:05.574Z,22.90
2019-03-04T00:59:35.231Z,24.70
2019-03-04T01:02:04.491Z,21.30
2019-03-04T01:04:34.161Z,22.73
2019-03-04T01:07:03.771Z,24.30
2019-03-04T01:09:33.340Z,23.80
2019-03-04T01:12:04.279Z,22.57
2019-03-04T01:14:33.387Z,21.50
2019-03-04T01:17:02.611Z,21.67
2019-03-04T01:19:32.186Z,16.50
2019-03-04T01:22:01.403Z,20.03
2019-03-04T01:24:30.942Z,18.63
2019-03-04T01:27:00.698Z,19.83
2019-03-04T01:29:29.992Z,21.53
2019-03-04T01:31:59.535Z,17.10
2019-03-04T01:34:28.732Z,22.23
2019-03-04T01:36:58.403Z,19.40
2019-03-04T01:39:28.248Z,18.17
2019-03-04T01:41:57.885Z,16.87
2019-03-04T01:44:27.711Z,18.57
2019-03-04T01:46:56.919Z,15.60
2019-03-04T01:49:26.442Z,18.30
2019-03-04T01:51:56.091Z,18.83
2019-03-04T01:54:25.328Z,17.97
2019-03-04T01:56:56.414Z,22.03
2019-03-04T01:59:26.048Z,12.93
2019-03-04T02:01:55.296Z,14.37
2019-03-04T02:04:24.406Z,18.57
2019-03-04T02:06:53.578Z,16.50
2019-03-04T02:09:23.990Z,18.33
2019-03-04T02:11:53.227Z,18.50
2019-03-04T02:14:22.318Z,18.17
2019-03-04T02:16:51.991Z,20.73
2019-03-04T02:19:21.658Z,14.17
2019-03-04T02:21:51.015Z,14.73
2019-03-04T02:24:24.019Z,15.43
2019-03-04T02:26:55.079Z,20.70
2019-03-04T02:29:24.319Z,17.27
2019-03-04T02:31:53.859Z,16.70
2019-03-04T02:34:23.101Z,14.63
2019-03-04T02:36:52.240Z,17.90
2019-03-04T02:39:21.802Z,13.87
2019-03-04T02:41:51.679Z,15.73
2019-03-04T02:44:21.408Z,19.60
2019-03-04T02:46:50.749Z,14.97
2019-03-04T02:49:19.875Z,17.23
2019-03-04T02:51:48.968Z,19.30
2019-03-04T02:54:18.180Z,16.70
2019-03-04T02:56:47.347Z,16.03
2019-03-04T02:59:17.047Z,16.43
2019-03-04T03:01:46.425Z,18.20
2019-03-04T03:04:15.671Z,14.80
2019-03-04T03:06:45.166Z,19.20
2019-03-04T03:09:14.846Z,17.03
2019-03-04T03:11:44.504Z,24.83
2019-03-04T03:14:13.783Z,12.63
2019-03-04T03:16:42.928Z,17.47
2019-03-04T03:19:12.173Z,15.20
2019-03-04T03:21:41.292Z,18.10
2019-03-04T03:24:10.934Z,20.37
2019-03-04T03:26:40.238Z,12.80
2019-03-04T03:29:09.867Z,14.27
2019-03-04T03:31:39.165Z,15.10
2019-03-04T03:34:08.283Z,15.90
2019-03-04T03:36:37.891Z,13.93
2019-03-04T03:39:08.309Z,13.30
2019-03-04T03:41:37.840Z,15.07
2019-03-04T03:44:07.566Z,14.57
2019-03-04T03:46:36.792Z,14.53
2019-03-04T03:49:06.326Z,15.27
2019-03-04T03:51:35.967Z,18.70
2019-03-04T03:54:06.348Z,14.03
2019-03-04T03:56:35.898Z,14.17
2019-03-04T03:59:05.650Z,16.57
2019-03-04T04:01:34.843Z,15.00
2019-03-04T04:04:04.036Z,18.63
2019-03-04T04:06:33.573Z,17.50
2019-03-04T04:09:04.478Z,14.57
2019-03-04T04:11:35.519Z,19.87
2019-03-04T04:14:05.493Z,16.10
2019-03-04T04:16:34.684Z,17.90
2019-03-04T04:19:04.293Z,17.00
2019-03-04T04:21:33.914Z,14.10
2019-03-04T04:24:03.107Z,17.13
2019-03-04T04:26:32.244Z,14.40
2019-03-04T04:29:08.829Z,19.97
2019-03-04T04:31:38.310Z,14.77
2019-03-04T04:34:07.432Z,17.43
2019-03-04T04:36:36.595Z,15.67
2019-03-04T04:39:07.869Z,12.90
2019-03-04T04:41:37.093Z,13.50
2019-03-04T04:44:06.711Z,14.10
2019-03-04T04:47:04.308Z,16.57
2019-03-04T04:49:34.768Z,22.13
2019-03-04T04:52:04.745Z,13.20
2019-03-04T04:54:33.955Z,15.33
2019-03-04T04:57:03.563Z,16.77
2019-03-04T04:59:33.238Z,20.47
2019-03-04T05:02:03.888Z,18.00
2019-03-04T05:04:33.521Z,14.70
2019-03-04T05:07:03.413Z,13.20
2019-03-04T05:09:33.046Z,14.03
2019-03-04T05:12:02.699Z,17.57
2019-03-04T05:14:32.395Z,16.60
2019-03-04T05:17:02.099Z,17.70
2019-03-04T05:19:31.795Z,14.60
2019-03-04T05:22:01.462Z,17.23
2019-03-04T05:24:31.147Z,14.87
2019-03-04T05:27:00.791Z,16.30
2019-03-04T05:29:30.075Z,13.30
2019-03-04T05:31:59.583Z,15.23
2019-03-04T05:34:29.206Z,14.10
2019-03-04T05:36:58.577Z,20.80
2019-03-04T05:39:28.140Z,15.70
2019-03-04T05:41:57.329Z,17.43
2019-03-04T05:44:26.910Z,18.30
2019-03-04T05:46:56.531Z,17.77
2019-03-04T05:49:26.157Z,17.07
2019-03-04T05:51:55.767Z,19.63
2019-03-04T05:54:25.523Z,15.80
2019-03-04T05:56:56.599Z,16.30
2019-03-04T05:59:25.893Z,14.93
2019-03-04T06:02:09.639Z,13.20
2019-03-04T06:04:40.624Z,15.53
2019-03-04T06:07:38.481Z,14.93
2019-03-04T06:10:10.765Z,14.17
2019-03-04T06:15:15.659Z,16.10
2019-03-04T06:17:45.299Z,17.50
2019-03-04T06:20:15.720Z,15.40
2019-03-04T06:22:45.670Z,14.50
2019-03-04T06:25:17.409Z,12.60
2019-03-04T06:27:47.005Z,14.30
2019-03-04T06:30:17.503Z,13.07
2019-03-04T06:32:47.188Z,11.93
2019-03-04T06:35:16.535Z,10.53
2019-03-04T06:37:46.251Z,10.57
2019-03-04T06:40:15.705Z,16.13
2019-03-04T06:42:45.443Z,12.90
2019-03-04T06:45:15.547Z,12.70
2019-03-04T06:47:45.169Z,13.00
2019-03-04T06:50:44.740Z,10.90
2019-03-04T06:53:19.223Z,14.20
2019-03-04T06:56:13.876Z,9.30
2019-03-04T06:58:46.388Z,12.97
2019-03-04T07:01:30.676Z,12.00
2019-03-04T07:04:05.595Z,13.70
2019-03-04T07:06:35.158Z,9.10
2019-03-04T07:09:09.739Z,15.50
2019-03-04T07:11:40.916Z,9.97
2019-03-04T07:14:10.807Z,10.13
2019-03-04T07:16:40.447Z,11.27
2019-03-04T07:19:12.155Z,11.10
2019-03-04T07:21:41.794Z,9.30
2019-03-04T07:24:11.448Z,9.83
2019-03-04T07:26:41.980Z,11.33
2019-03-04T07:29:11.647Z,12.23
2019-03-04T07:31:41.402Z,10.87
2019-03-04T07:34:10.668Z,10.77
2019-03-04T07:36:40.239Z,16.20
2019-03-04T07:39:14.295Z,11.57
2019-03-04T07:41:45.682Z,10.87
2019-03-04T07:44:15.554Z,12.27
2019-03-04T07:46:44.923Z,10.93
2019-03-04T07:49:14.549Z,15.43
2019-03-04T07:51:44.268Z,10.87
2019-03-04T07:54:15.002Z,14.27
2019-03-04T07:56:44.280Z,8.63
2019-03-04T07:59:13.879Z,13.17
2019-03-04T08:01:43.870Z,12.70
2019-03-04T08:04:13.533Z,12.10
2019-03-04T08:06:43.172Z,10.17
2019-03-04T08:09:27.630Z,11.87
2019-03-04T08:12:46.831Z,9.60
2019-03-04T08:15:16.564Z,9.23
2019-03-04T08:17:46.406Z,13.57
2019-03-04T08:20:16.290Z,11.83
2019-03-04T08:22:45.972Z,10.80
2019-03-04T08:25:16.860Z,14.47
2019-03-04T08:27:46.276Z,10.43
2019-03-04T08:30:21.368Z,12.33
2019-03-04T08:32:51.090Z,11.03
2019-03-04T08:35:20.322Z,9.47
2019-03-04T08:37:50.144Z,11.10
2019-03-04T08:40:20.741Z,14.57
2019-03-04T08:42:50.556Z,9.13
2019-03-04T08:45:20.761Z,8.37
2019-03-04T08:47:50.442Z,8.87
2019-03-04T08:50:20.179Z,7.57
2019-03-04T08:52:49.884Z,6.87
2019-03-04T08:55:19.799Z,6.33
2019-03-04T08:57:49.574Z,9.43
2019-03-04T09:00:21.238Z,9.23
2019-03-04T09:02:52.002Z,9.63
2019-03-04T09:05:21.623Z,9.33
2019-03-04T09:07:51.423Z,8.67
2019-03-04T09:10:25.710Z,6.80
2019-03-04T09:12:55.509Z,6.33
2019-03-04T09:15:25.067Z,4.90
2019-03-04T09:17:54.367Z,7.33
2019-03-04T09:20:24.751Z,7.50
2019-03-04T09:22:55.442Z,8.30
2019-03-04T09:25:33.770Z,8.60
2019-03-04T09:28:04.328Z,8.93
2019-03-04T09:30:34.154Z,5.27
2019-03-04T09:33:04.174Z,5.63
2019-03-04T09:35:34.241Z,9.77
2019-03-04T09:38:04.553Z,7.60
2019-03-04T09:40:34.463Z,10.07
2019-03-04T09:43:04.331Z,6.33
2019-03-04T09:45:38.750Z,6.63
2019-03-04T09:48:05.155Z,7.00
2019-03-04T09:50:34.404Z,10.13
2019-03-04T09:53:04.158Z,9.10
2019-03-04T09:55:33.985Z,7.17
2019-03-04T09:58:05.391Z,5.57
2019-03-04T10:00:48.850Z,7.07
2019-03-04T10:03:37.463Z,6.97
2019-03-04T10:06:24.694Z,8.30
2019-03-04T10:09:25.511Z,9.53
2019-03-04T10:12:11.391Z,5.70
2019-03-04T10:15:09.136Z,5.30
2019-03-04T10:17:53.473Z,6.53
2019-03-04T10:20:46.267Z,5.43
2019-03-04T10:23:35.855Z,6.30
2019-03-04T10:27:06.296Z,5.23
2019-03-04T10:30:10.685Z,9.10
2019-03-04T10:33:21.866Z,5.33
2019-03-04T10:36:13.464Z,5.73
2019-03-04T10:39:17.806Z,4.33
2019-03-04T10:42:15.355Z,5.93
2019-03-04T10:45:20.731Z,3.93
2019-03-04T10:47:50.474Z,5.73
2019-03-04T10:50:30.099Z,6.93
2019-03-04T10:52:59.753Z,7.27
2019-03-04T10:55:29.540Z,6.93
2019-03-04T10:57:59.482Z,5.47
2019-03-04T11:00:28.757Z,5.83
2019-03-04T11:02:58.260Z,6.60
2019-03-04T11:05:28.173Z,5.90
2019-03-04T11:07:58.072Z,6.83
2019-03-04T11:10:27.826Z,5.17
2019-03-04T11:12:57.527Z,5.17
2019-03-04T11:15:26.846Z,5.67
2019-03-04T11:17:56.711Z,5.57
2019-03-04T11:20:26.523Z,10.60
2019-03-04T11:22:56.187Z,6.00
2019-03-04T11:25:26.130Z,7.83
2019-03-04T11:27:55.966Z,5.30
2019-03-04T11:30:29.036Z,9.07
2019-03-04T11:32:58.174Z,5.03
2019-03-04T11:35:27.796Z,3.83
2019-03-04T11:37:57.479Z,0.90
2019-03-04T11:40:38.742Z,3.37
2019-03-04T11:43:08.483Z,3.50
2019-03-04T11:45:38.153Z,2.30
2019-03-04T11:48:08.168Z,2.77
2019-03-04T11:50:38.033Z,2.13
2019-03-04T11:53:07.747Z,2.70
2019-03-04T11:55:37.471Z,2.30
2019-03-04T11:58:07.331Z,1.23
2019-03-04T12:00:40.604Z,2.97
2019-03-04T12:03:10.439Z,2.50
2019-03-04T12:05:41.371Z,2.03
2019-03-04T12:08:10.747Z,2.03
2019-03-04T12:10:40.424Z,2.10
2019-03-04T12:13:10.338Z,3.47
2019-03-04T12:15:40.163Z,3.30
2019-03-04T12:18:10.044Z,2.50
2019-03-04T12:20:39.920Z,1.73
2019-03-04T12:23:09.630Z,4.50
2019-03-04T12:25:39.399Z,5.27
2019-03-04T12:28:09.279Z,3.40
2019-03-04T12:30:39.181Z,4.13
2019-03-04T12:33:08.531Z,3.43
2019-03-04T12:35:37.767Z,2.47
2019-03-04T12:38:07.539Z,2.73
2019-03-04T12:40:37.467Z,1.60
2019-03-04T12:43:06.699Z,3.20
2019-03-04T12:45:36.362Z,2.47
2019-03-04T12:48:06.346Z,2.60
2019-03-04T12:50:36.054Z,3.03
2019-03-04T12:53:06.019Z,4.57
2019-03-04T12:55:35.953Z,2.70
2019-03-04T12:58:05.901Z,9.47
2019-03-04T13:00:36.641Z,4.50
2019-03-04T13:03:06.469Z,2.97
2019-03-04T13:05:36.123Z,2.03
2019-03-04T13:08:06.044Z,1.47
2019-03-04T13:10:35.344Z,4.20
2019-03-04T13:13:05.231Z,2.63
2019-03-04T13:15:35.306Z,2.87
2019-03-04T13:18:05.175Z,2.20
2019-03-04T13:20:35.998Z,2.73
2019-03-04T13:23:06.152Z,2.10
2019-03-04T13:25:35.830Z,1.93
2019-03-04T13:28:08.469Z,2.27
2019-03-04T13:30:37.743Z,3.07
2019-03-04T13:33:08.057Z,3.97
2019-03-04T13:35:38.385Z,4.80
2019-03-04T13:38:08.238Z,2.83
2019-03-04T13:40:38.076Z,3.37
2019-03-04T13:43:07.315Z,1.87
2019-03-04T13:45:36.494Z,1.77
2019-03-04T13:48:05.792Z,5.53
2019-03-04T13:50:35.297Z,2.97
2019-03-04T13:53:06.979Z,2.80
2019-03-04T13:55:36.359Z,4.77
2019-03-04T13:58:06.121Z,2.33
2019-03-04T14:00:35.687Z,1.83
2019-03-04T14:03:05.073Z,2.50
2019-03-04T14:05:34.274Z,4.63
2019-03-04T14:08:04.040Z,2.60
2019-03-04T14:10:35.987Z,3.27
2019-03-04T14:13:05.310Z,4.00
2019-03-04T14:15:36.922Z,3.00
2019-03-04T14:18:06.856Z,3.73
2019-03-04T14:20:36.554Z,3.87
2019-03-04T14:23:06.684Z,13.03
2019-03-04T14:25:36.155Z,4.40
2019-03-04T14:28:05.325Z,7.23
2019-03-04T14:30:35.012Z,2.93
2019-03-04T14:33:06.197Z,6.77
2019-03-04T14:35:35.977Z,6.13
2019-03-04T14:38:06.038Z,4.90
2019-03-04T14:40:35.732Z,5.20
2019-03-04T14:43:05.544Z,2.27
2019-03-04T14:45:35.115Z,2.00
2019-03-04T14:48:04.949Z,2.50
2019-03-04T14:50:35.511Z,1.30
2019-03-04T14:53:04.984Z,1.73
2019-03-04T14:55:34.632Z,2.50
2019-03-04T14:58:04.067Z,1.17
2019-03-04T15:00:37.125Z,1.50
2019-03-04T15:03:06.600Z,1.80
2019-03-04T15:05:36.621Z,1.90
2019-03-04T15:08:05.849Z,3.03
2019-03-04T15:10:35.585Z,1.80
2019-03-04T15:13:05.279Z,1.67
2019-03-04T15:15:35.177Z,1.97
2019-03-04T15:18:04.490Z,2.27
2019-03-04T15:20:34.865Z,4.00
2019-03-04T15:23:04.644Z,3.03
2019-03-04T15:25:34.199Z,1.50
2019-03-04T15:28:08.037Z,2.30
2019-03-04T15:30:37.977Z,2.70
2019-03-04T15:33:17.156Z,3.73
2019-03-04T15:35:38.570Z,1.60
2019-03-04T15:38:08.331Z,1.17
2019-03-04T15:40:38.300Z,2.60
2019-03-04T15:43:08.054Z,4.63
2019-03-04T15:45:38.942Z,1.40
2019-03-04T15:48:08.304Z,2.00
2019-03-04T15:50:38.055Z,3.20
2019-03-04T15:53:08.324Z,1.83
2019-03-04T15:55:37.547Z,5.87
2019-03-04T15:58:07.254Z,9.93
2019-03-04T16:00:36.551Z,3.37
2019-03-04T16:03:06.503Z,1.83
2019-03-04T16:05:36.167Z,4.60
2019-03-04T16:08:07.831Z,4.33
2019-03-04T16:10:38.399Z,3.07
2019-03-04T16:13:08.400Z,1.57
2019-03-04T16:15:40.227Z,1.60
2019-03-04T16:18:10.010Z,2.47
2019-03-04T16:20:40.066Z,1.40
2019-03-04T16:23:10.746Z,2.10
2019-03-04T16:25:40.133Z,1.90
2019-03-04T16:28:13.422Z,2.77
2019-03-04T16:30:43.298Z,3.47
2019-03-04T16:33:12.530Z,4.30
2019-03-04T16:35:42.224Z,3.53
2019-03-04T16:38:11.512Z,3.40
2019-03-04T16:40:41.295Z,1.57
2019-03-04T16:43:11.003Z,2.50
2019-03-04T16:45:41.036Z,2.27
2019-03-04T16:48:10.755Z,2.30
2019-03-04T16:50:41.102Z,3.23
2019-03-04T16:53:11.876Z,6.43
2019-03-04T16:55:41.272Z,5.87
2019-03-04T16:58:10.892Z,5.93
2019-03-04T17:00:40.715Z,2.03
2019-03-04T17:03:11.235Z,3.77
2019-03-04T17:05:40.420Z,2.03
2019-03-04T17:08:09.538Z,3.30
2019-03-04T17:10:39.294Z,2.40
2019-03-04T17:13:08.573Z,3.37
2019-03-04T17:15:37.836Z,2.77
2019-03-04T17:18:07.639Z,3.10
2019-03-04T17:20:37.487Z,1.60
2019-03-04T17:23:07.848Z,2.07
2019-03-04T17:25:37.926Z,1.40
2019-03-04T17:28:07.681Z,4.70
2019-03-04T17:30:37.728Z,2.60
2019-03-04T17:33:07.441Z,4.07
2019-03-04T17:35:36.649Z,2.83
2019-03-04T17:38:06.244Z,3.13
2019-03-04T17:40:35.573Z,3.60
2019-03-04T17:43:04.801Z,4.27
2019-03-04T17:45:34.498Z,2.20
2019-03-04T17:48:04.359Z,4.80
2019-03-04T17:50:34.644Z,2.23
2019-03-04T17:53:07.801Z,2.10
2019-03-04T17:55:37.463Z,2.43
2019-03-04T17:58:07.414Z,3.87
2019-03-04T18:00:38.943Z,1.87
2019-03-04T18:03:08.132Z,3.50
2019-03-04T18:05:37.385Z,2.20
2019-03-04T18:08:07.175Z,4.73
2019-03-04T18:10:36.418Z,5.43
2019-03-04T18:13:06.395Z,4.07
2019-03-04T18:15:36.405Z,4.83
2019-03-04T18:18:06.277Z,3.23
2019-03-04T18:20:36.052Z,5.07
2019-03-04T18:23:05.289Z,6.10
2019-03-04T18:26:05.988Z,3.83
2019-03-04T18:29:01.055Z,4.07
2019-03-04T18:31:40.883Z,2.70
2019-03-04T18:34:30.482Z,3.37
2019-03-04T18:38:07.325Z,6.07
2019-03-04T18:41:18.664Z,4.07
2019-03-04T18:47:51.504Z,4.27
2019-03-04T18:50:23.089Z,4.90
2019-03-04T18:52:53.312Z,4.70
2019-03-04T18:55:23.072Z,5.00
2019-03-04T18:57:53.143Z,2.83
2019-03-04T19:00:24.264Z,3.80
2019-03-04T19:02:54.147Z,3.03
2019-03-04T19:05:24.117Z,3.33
2019-03-04T19:07:53.867Z,4.20
2019-03-04T19:10:25.775Z,3.30
2019-03-04T19:12:55.710Z,4.67
2019-03-04T19:15:26.579Z,1.90
2019-03-04T19:17:56.659Z,3.77
2019-03-04T19:20:26.390Z,3.33
2019-03-04T19:22:56.215Z,4.60
2019-03-04T19:25:26.052Z,4.67
2019-03-04T19:27:55.834Z,3.77
2019-03-04T19:30:25.835Z,3.63
2019-03-04T19:32:55.727Z,3.23
2019-03-04T19:35:25.572Z,5.03
2019-03-04T19:37:55.445Z,3.80
2019-03-04T19:40:25.475Z,8.03
2019-03-04T19:42:55.332Z,5.47
2019-03-04T19:45:24.792Z,4.13
2019-03-04T19:47:54.497Z,7.00
2019-03-04T19:50:25.103Z,6.10
2019-03-04T19:52:54.846Z,6.37
2019-03-04T19:55:24.095Z,6.07
2019-03-04T19:57:53.717Z,4.47
2019-03-04T20:00:26.203Z,6.33
2019-03-04T20:02:56.131Z,4.23
2019-03-04T20:05:25.988Z,4.97
2019-03-04T20:07:56.294Z,4.90
2019-03-04T20:10:26.375Z,5.20
2019-03-04T20:12:56.152Z,5.60
2019-03-04T20:15:26.067Z,4.63
2019-03-04T20:17:56.584Z,4.07
2019-03-04T20:20:26.280Z,5.10
2019-03-04T20:22:55.486Z,5.43
2019-03-04T20:25:24.688Z,5.70
2019-03-04T20:27:53.852Z,8.03
2019-03-04T20:30:25.458Z,5.67
2019-03-04T20:32:58.418Z,8.23
2019-03-04T20:35:30.162Z,5.70
2019-03-04T20:41:21.222Z,10.50
2019-03-04T20:43:53.564Z,7.47
2019-03-04T20:46:26.286Z,8.67
2019-03-04T20:48:57.473Z,9.00
2019-03-04T20:51:32.663Z,5.53
2019-03-04T20:54:02.154Z,7.50
2019-03-04T20:56:32.948Z,7.77
2019-03-04T20:59:02.331Z,6.17
2019-03-04T21:01:33.080Z,6.90
2019-03-04T21:04:02.380Z,8.23
2019-03-04T21:06:31.463Z,5.43
2019-03-04T21:09:00.761Z,9.33
2019-03-04T21:11:32.463Z,5.20
2019-03-04T21:14:02.337Z,6.20
2019-03-04T21:16:31.958Z,7.40
2019-03-04T21:19:01.664Z,4.07
2019-03-04T21:21:31.533Z,6.37
2019-03-04T21:24:01.777Z,9.53
2019-03-04T21:26:44.862Z,6.67
2019-03-04T21:29:29.633Z,6.23
2019-03-04T21:31:57.173Z,6.57
2019-03-04T21:34:41.066Z,6.13
2019-03-04T21:37:15.603Z,9.20
2019-03-04T21:39:45.483Z,6.73
2019-03-04T21:42:31.880Z,9.10
2019-03-04T21:45:31.385Z,9.70
2019-03-04T21:48:09.168Z,6.43
2019-03-04T21:50:53.771Z,10.23
2019-03-04T21:53:34.364Z,9.93
2019-03-04T21:56:41.703Z,14.37
2019-03-04T21:59:11.360Z,12.33
2019-03-04T22:01:50.443Z,13.07
2019-03-04T22:04:20.158Z,9.67
2019-03-04T22:06:49.947Z,9.87
2019-03-04T22:09:19.405Z,17.90
2019-03-04T22:11:51.300Z,10.77
2019-03-04T22:14:21.040Z,11.67
2019-03-04T22:16:50.500Z,15.00
2019-03-04T22:19:20.259Z,13.90
2019-03-04T22:21:50.267Z,14.47
2019-03-04T22:24:19.972Z,12.77
2019-03-04T22:26:49.653Z,15.87
2019-03-04T22:29:18.877Z,15.37
2019-03-04T22:31:48.058Z,15.00
2019-03-04T22:34:17.631Z,14.07
2019-03-04T22:36:47.515Z,11.03
2019-03-04T22:39:16.863Z,11.03
2019-03-04T22:41:46.492Z,15.33
2019-03-04T22:44:15.728Z,8.80
2019-03-04T22:46:47.019Z,12.47
2019-03-04T22:49:16.752Z,14.07
2019-03-04T22:51:46.487Z,10.53
2019-03-04T22:54:15.839Z,10.10
2019-03-04T22:56:45.399Z,13.77
2019-03-04T22:59:15.097Z,13.70
2019-03-04T23:01:49.124Z,13.03
2019-03-04T23:04:19.752Z,12.27
2019-03-04T23:07:05.202Z,8.67
2019-03-04T23:09:40.858Z,13.17
2019-03-04T23:12:12.884Z,12.63
2019-03-04T23:14:42.605Z,9.10
2019-03-04T23:17:12.376Z,11.67
2019-03-04T23:19:41.651Z,8.93
2019-03-04T23:22:10.757Z,7.90
2019-03-04T23:24:39.894Z,10.97
2019-03-04T23:27:09.033Z,13.77
2019-03-04T23:29:38.166Z,11.43
2019-03-04T23:32:07.670Z,11.40
2019-03-04T23:34:37.514Z,5.67
2019-03-04T23:37:06.882Z,11.90
2019-03-04T23:39:36.904Z,9.87
2019-03-04T23:42:07.303Z,8.37
2019-03-04T23:44:36.694Z,10.00
2019-03-04T23:47:06.409Z,10.73
2019-03-04T23:49:36.052Z,11.37
2019-03-04T23:52:05.756Z,10.53
2019-03-04T23:54:34.979Z,8.60
2019-03-04T23:57:04.087Z,8.77
2019-03-04T23:59:33.215Z,12.83
